| time (UTC) | temp C | wind direction | speed KPH | gust KPH | rain 1hr cm | rain 24hr cm | rain mn cm | humidity % | barometer mb |
| 20260508035055 | 13 | 350 | 3.2 | 4.8 | 0.00 | 0.00 | 0.00 | 33 | 1011.9 |
| 20260508032959 | 13 | 317 | 6.4 | 9.7 | 0.00 | 0.00 | 0.00 | 33 | 1011.9 |
| 20260508031958 | 13 | 309 | 4.8 | 9.7 | 0.00 | 0.00 | 0.00 | 33 | 1011.7 |
| 20260508031019 | 15 | 309 | 6.4 | 11.3 | 0.00 | 0.00 | 0.00 | 31 | 1011.5 |
| 20260508030015 | 15 | 309 | 8.0 | 14.5 | 0.00 | 0.00 | 0.00 | 30 | 1011.4 |
| 20260508025003 | 16 | 319 | 8.0 | 16.1 | 0.00 | 0.00 | 0.00 | 28 | 1011.5 |
| 20260508023944 | 16 | 320 | 11.3 | 16.1 | 0.00 | 0.00 | 0.00 | 28 | 1011.2 |
| 20260508022958 | 17 | 310 | 9.7 | 19.3 | 0.00 | 0.00 | 0.00 | 27 | 1011.2 |
| 20260508022000 | 17 | 327 | 11.3 | 20.9 | 0.00 | 0.00 | 0.00 | 27 | 1011.1 |
| 20260508020948 | 18 | 317 | 14.5 | 20.9 | 0.00 | 0.00 | 0.00 | 26 | 1011.1 |
| 20260508020006 | 18 | 322 | 12.9 | 20.9 | 0.00 | 0.00 | 0.00 | 26 | 1011.5 |
| 20260508014931 | 18 | 315 | 14.5 | 20.9 | 0.00 | 0.00 | 0.00 | 26 | 1011.6 |
| 20260508013919 | 19 | 307 | 12.9 | 20.9 | 0.00 | 0.00 | 0.00 | 26 | 1011.4 |
| 20260508012944 | 20 | 336 | 11.3 | 20.9 | 0.00 | 0.00 | 0.00 | 27 | 1011.4 |
| 20260508011920 | 19 | 321 | 11.3 | 24.1 | 0.00 | 0.00 | 0.00 | 26 | 1011.5 |
| 20260508010906 | 20 | 340 | 12.9 | 24.1 | 0.00 | 0.00 | 0.00 | 26 | 1011.3 |
| 20260508005912 | 20 | 333 | 14.5 | 22.5 | 0.00 | 0.00 | 0.00 | 28 | 1011.7 |
| 20260508004910 | 20 | 347 | 14.5 | 22.5 | 0.00 | 0.00 | 0.00 | 28 | 1011.7 |
| 20260508003858 | 20 | 330 | 11.3 | 22.5 | 0.00 | 0.00 | 0.00 | 29 | 1011.5 |
| 20260508002911 | 21 | 319 | 11.3 | 22.5 | 0.00 | 0.00 | 0.00 | 29 | 1011.5 |
| 20260508001933 | 21 | 316 | 11.3 | 22.5 | 0.00 | 0.00 | 0.00 | 27 | 1011.4 |
| 20260508000929 | 21 | 323 | 9.7 | 17.7 | 0.00 | 0.00 | 0.00 | 28 | 1011.5 |
| 20260507235912 | 21 | 339 | 8.0 | 20.9 | 0.00 | 0.00 | 0.00 | 29 | 1011.5 |
| 20260507234909 | 21 | 355 | 11.3 | 20.9 | 0.00 | 0.00 | 0.00 | 29 | 1011.5 |
| 20260507233849 | 22 | 345 | 9.7 | 17.7 | 0.00 | 0.00 | 0.00 | 30 | 1011.3 |
| 20260507232826 | 22 | 322 | 8.0 | 17.7 | 0.00 | 0.00 | 0.00 | 30 | 1011.3 |
| 20260507231818 | 21 | 331 | 8.0 | 16.1 | 0.00 | 0.00 | 0.00 | 31 | 1011.5 |
| 20260507230826 | 21 | 321 | 8.0 | 16.1 | 0.00 | 0.00 | 0.00 | 32 | 1011.6 |
| 20260507225829 | 21 | 321 | 11.3 | 17.7 | 0.00 | 0.00 | 0.00 | 32 | 1011.6 |
| 20260507224844 | 21 | 333 | 9.7 | 19.3 | 0.00 | 0.00 | 0.00 | 32 | 1011.6 |
| 20260507223807 | 21 | 286 | 11.3 | 20.9 | 0.00 | 0.00 | 0.00 | 35 | 1011.6 |
| 20260507222807 | 20 | 309 | 11.3 | 20.9 | 0.00 | 0.00 | 0.00 | 37 | 1011.8 |
| 20260507221831 | 21 | 312 | 8.0 | 19.3 | 0.00 | 0.00 | 0.00 | 34 | 1011.9 |
| 20260507215702 | 21 | 348 | 9.7 | 17.7 | 0.00 | 0.00 | 0.00 | 32 | 1011.6 |
| 20260507213520 | 21 | 275 | 8.0 | 17.7 | 0.00 | 0.00 | 0.00 | 29 | 1011.6 |
| 20260507211310 | 21 | 317 | 6.4 | 19.3 | 0.00 | 0.00 | 0.00 | 32 | 1011.9 |
| 20260507210258 | 21 | 288 | 6.4 | 16.1 | 0.00 | 0.00 | 0.00 | 27 | 1011.9 |
| 20260507205259 | 21 | 336 | 6.4 | 16.1 | 0.00 | 0.00 | 0.00 | 29 | 1012.1 |
| 20260507204232 | 21 | 302 | 3.2 | 14.5 | 0.00 | 0.00 | 0.00 | 31 | 1012.2 |
| 20260507202104 | 21 | 305 | 6.4 | 17.7 | 0.00 | 0.00 | 0.00 | 34 | 1012.4 |
| 20260507201126 | 20 | 336 | 8.0 | 17.7 | 0.00 | 0.00 | 0.00 | 32 | 1012.7 |
| 20260507200112 | 20 | 309 | 8.0 | 22.5 | 0.00 | 0.00 | 0.00 | 35 | 1012.6 |
| 20260507195040 | 20 | 290 | 9.7 | 22.5 | 0.00 | 0.00 | 0.00 | 37 | 1012.7 |
| 20260507194042 | 20 | 263 | 8.0 | 24.1 | 0.00 | 0.00 | 0.00 | 35 | 1012.6 |
| 20260507193053 | 20 | 269 | 12.9 | 24.1 | 0.00 | 0.00 | 0.00 | 37 | 1012.8 |
| 20260507192108 | 20 | 258 | 14.5 | 24.1 | 0.00 | 0.00 | 0.00 | 38 | 1012.9 |
| 20260507191047 | 20 | 249 | 16.1 | 24.1 | 0.00 | 0.00 | 0.00 | 36 | 1013.0 |
| 20260507190111 | 19 | 267 | 17.7 | 25.7 | 0.00 | 0.00 | 0.00 | 37 | 1012.9 |
| 20260507185057 | 18 | 272 | 14.5 | 25.7 | 0.00 | 0.00 | 0.00 | 36 | 1012.8 |
| 20260507184115 | 18 | 289 | 12.9 | 22.5 | 0.00 | 0.00 | 0.00 | 38 | 1013.0 |
| 20260507181943 | 18 | 277 | 12.9 | 24.1 | 0.00 | 0.00 | 0.00 | 37 | 1013.4 |
| 20260507180956 | 18 | 254 | 12.9 | 24.1 | 0.00 | 0.00 | 0.00 | 43 | 1013.4 |
| 20260507175946 | 18 | 246 | 11.3 | 22.5 | 0.00 | 0.00 | 0.00 | 42 | 1013.2 |
| 20260507174946 | 17 | 224 | 14.5 | 22.5 | 0.00 | 0.00 | 0.00 | 49 | 1013.4 |
| 20260507173925 | 17 | 271 | 11.3 | 22.5 | 0.00 | 0.00 | 0.00 | 47 | 1013.4 |
| 20260507172851 | 16 | 247 | 12.9 | 22.5 | 0.00 | 0.00 | 0.00 | 49 | 1013.7 |
| 20260507171821 | 16 | 261 | 11.3 | 20.9 | 0.00 | 0.00 | 0.00 | 53 | 1013.6 |
| 20260507170757 | 16 | 249 | 8.0 | 17.7 | 0.00 | 0.00 | 0.00 | 55 | 1013.6 |
| 20260507165738 | 15 | 246 | 8.0 | 17.7 | 0.00 | 0.00 | 0.00 | 59 | 1013.5 |
| 20260507164715 | 15 | 221 | 8.0 | 16.1 | 0.00 | 0.00 | 0.00 | 59 | 1013.5 |
| 20260507163704 | 15 | 228 | 9.7 | 16.1 | 0.00 | 0.00 | 0.00 | 61 | 1013.5 |
| 20260507162729 | 15 | 238 | 8.0 | 16.1 | 0.00 | 0.00 | 0.00 | 63 | 1013.6 |
| 20260507161707 | 15 | 250 | 9.7 | 17.7 | 0.00 | 0.00 | 0.00 | 62 | 1013.7 |
| 20260507160641 | 14 | 265 | 11.3 | 20.9 | 0.00 | 0.00 | 0.00 | 64 | 1013.6 |
| 20260507155647 | 14 | 269 | 11.3 | 20.9 | 0.00 | 0.00 | 0.00 | 65 | 1013.6 |
| 20260507154614 | 14 | 248 | 9.7 | 17.7 | 0.00 | 0.00 | 0.00 | 67 | 1013.7 |
| 20260507153545 | 13 | 246 | 11.3 | 19.3 | 0.00 | 0.00 | 0.00 | 69 | 1013.9 |
| 20260507152517 | 13 | 225 | 12.9 | 19.3 | 0.00 | 0.00 | 0.00 | 70 | 1013.8 |
| 20260507151536 | 12 | 247 | 11.3 | 16.1 | 0.00 | 0.00 | 0.00 | 71 | 1014.1 |
| 20260507150507 | 12 | 232 | 12.9 | 20.9 | 0.00 | 0.00 | 0.00 | 73 | 1014.1 |
| 20260507145505 | 12 | 238 | 14.5 | 24.1 | 0.00 | 0.00 | 0.00 | 76 | 1013.7 |
| 20260507144448 | 11 | 244 | 16.1 | 24.1 | 0.00 | 0.00 | 0.00 | 79 | 1013.8 |
| 20260507143450 | 11 | 232 | 14.5 | 22.5 | 0.00 | 0.00 | 0.00 | 82 | 1013.9 |
| 20260507141322 | 8 | 220 | 4.8 | 8.0 | 0.00 | 0.00 | 0.00 | 90 | 1014.2 |
| 20260507140329 | 8 | 217 | 0.0 | 6.4 | 0.00 | 0.00 | 0.00 | 89 | 1014.5 |
| 20260507135350 | 7 | 225 | 0.0 | 0.0 | 0.00 | 0.00 | 0.00 | 89 | 1014.2 |
| 20260507134413 | 7 | 225 | 0.0 | 0.0 | 0.00 | 0.00 | 0.00 | 90 | 1014.5 |
| 20260507133427 | 6 | 225 | 0.0 | 0.0 | 0.00 | 0.00 | 0.00 | 89 | 1014.7 |
| 20260507132403 | 6 | 216 | 0.0 | 0.0 | 0.00 | 0.00 | 0.00 | 88 | 1014.6 |
| 20260507131354 | 6 | 216 | 0.0 | 6.4 | 0.00 | 0.00 | 0.00 | 89 | 1014.6 |
| 20260507130413 | 6 | 305 | 0.0 | 6.4 | 0.00 | 0.00 | 0.00 | 86 | 1014.5 |
| 20260507125354 | 6 | 182 | 3.2 | 4.8 | 0.00 | 0.00 | 0.00 | 88 | 1014.1 |
| 20260507124406 | 6 | 175 | 3.2 | 4.8 | 0.00 | 0.00 | 0.00 | 88 | 1014.1 |
| 20260507123346 | 6 | 182 | 3.2 | 4.8 | 0.00 | 0.00 | 0.00 | 88 | 1014.1 |
| 20260507122359 | 6 | 171 | 3.2 | 6.4 | 0.00 | 0.00 | 0.00 | 87 | 1014.0 |
| 20260507121351 | 7 | 170 | 3.2 | 6.4 | 0.00 | 0.00 | 0.00 | 86 | 1014.0 |
| 20260507120406 | 6 | 161 | 1.6 | 3.2 | 0.00 | 0.00 | 0.00 | 88 | 1014.1 |
| 20260507115412 | 6 | 163 | 1.6 | 3.2 | 0.00 | 0.00 | 0.00 | 85 | 1013.8 |
| 20260507114426 | 7 | 200 | 0.0 | 3.2 | 0.00 | 0.00 | 0.00 | 84 | 1013.5 |
| 20260507112337 | 7 | 172 | 1.6 | 4.8 | 0.00 | 0.00 | 0.00 | 86 | 1013.6 |
| 20260507111329 | 7 | 176 | 3.2 | 6.4 | 0.00 | 0.00 | 0.00 | 84 | 1013.4 |
| 20260507110320 | 8 | 177 | 3.2 | 8.0 | 0.00 | 0.00 | 0.00 | 83 | 1013.5 |
| 20260507103100 | 9 | 198 | 8.0 | 12.9 | 0.00 | 0.00 | 0.00 | 80 | 1012.7 |
| 20260507102116 | 10 | 199 | 6.4 | 9.7 | 0.00 | 0.00 | 0.00 | 79 | 1012.8 |
| 20260507100013 | 10 | 211 | 8.0 | 14.5 | 0.00 | 0.00 | 0.00 | 77 | 1012.6 |
| 20260507094955 | 11 | 213 | 9.7 | 14.5 | 0.00 | 0.00 | 0.00 | 76 | 1012.5 |
| 20260507092826 | 11 | 200 | 8.0 | 17.7 | 0.00 | 0.00 | 0.00 | 76 | 1012.4 |
| 20260507091802 | 11 | 202 | 8.0 | 17.7 | 0.00 | 0.00 | 0.00 | 77 | 1012.5 |
| 20260507090825 | 11 | 207 | 8.0 | 12.9 | 0.00 | 0.00 | 0.00 | 77 | 1012.5 |
| 20260507085803 | 11 | 208 | 8.0 | 12.9 | 0.00 | 0.00 | 0.00 | 77 | 1012.7 |
| 20260507083621 | 11 | 225 | 8.0 | 12.9 | 0.00 | 0.00 | 0.00 | 77 | 1012.7 |
| 20260507081515 | 11 | 210 | 6.4 | 11.3 | 0.00 | 0.00 | 0.00 | 78 | 1012.6 |
| 20260507080531 | 10 | 192 | 4.8 | 8.0 | 0.00 | 0.00 | 0.00 | 79 | 1012.9 |
| 20260507075525 | 11 | 227 | 4.8 | 8.0 | 0.00 | 0.00 | 0.00 | 79 | 1013.1 |
| 20260507073312 | 11 | 221 | 8.0 | 12.9 | 0.00 | 0.00 | 0.00 | 77 | 1013.0 |
| 20260507072306 | 11 | 205 | 6.4 | 9.7 | 0.00 | 0.00 | 0.00 | 76 | 1012.8 |
| 20260507071312 | 11 | 209 | 6.4 | 12.9 | 0.00 | 0.00 | 0.00 | 75 | 1012.8 |
| 20260507070243 | 12 | 209 | 4.8 | 14.5 | 0.00 | 0.00 | 0.00 | 73 | 1012.8 |
| 20260507065305 | 12 | 227 | 3.2 | 14.5 | 0.00 | 0.00 | 0.00 | 72 | 1013.2 |
| 20260507064245 | 12 | 244 | 6.4 | 12.9 | 0.00 | 0.00 | 0.00 | 72 | 1013.2 |
| 20260507063235 | 12 | 245 | 6.4 | 12.9 | 0.00 | 0.00 | 0.00 | 70 | 1013.1 |
| 20260507062221 | 12 | 269 | 4.8 | 8.0 | 0.00 | 0.00 | 0.00 | 68 | 1013.1 |
| 20260507061220 | 13 | 264 | 1.6 | 4.8 | 0.00 | 0.00 | 0.00 | 62 | 1013.1 |
| 20260507060213 | 13 | 247 | 0.0 | 8.0 | 0.00 | 0.00 | 0.00 | 58 | 1013.2 |
| 20260507055211 | 14 | 268 | 4.8 | 14.5 | 0.00 | 0.00 | 0.00 | 55 | 1013.2 |
| 20260507054139 | 14 | 246 | 6.4 | 17.7 | 0.00 | 0.00 | 0.00 | 54 | 1013.4 |
| 20260507051951 | 15 | 321 | 11.3 | 20.9 | 0.00 | 0.00 | 0.00 | 50 | 1013.2 |
| 20260507045833 | 15 | 286 | 12.9 | 24.1 | 0.00 | 0.00 | 0.00 | 51 | 1013.5 |
| 20260507044835 | 15 | 316 | 14.5 | 24.1 | 0.00 | 0.00 | 0.00 | 51 | 1013.5 |
| 20260507042754 | 15 | 264 | 9.7 | 27.4 | 0.00 | 0.00 | 0.00 | 52 | 1013.6 |
| 20260507041734 | 15 | 266 | 14.5 | 27.4 | 0.00 | 0.00 | 0.00 | 51 | 1013.6 |
| 20260507040703 | 15 | 268 | 8.0 | 20.9 | 0.00 | 0.00 | 0.00 | 53 | 1013.6 |